createdAt,value
2018-12-27T00:01:28.448Z,4.13
2018-12-27T00:03:59.999Z,1.98
2018-12-27T00:06:30.963Z,2.73
2018-12-27T00:09:01.995Z,2.37
2018-12-27T00:11:33.720Z,2.58
2018-12-27T00:14:04.696Z,2.40
2018-12-27T00:16:35.729Z,3.10
2018-12-27T00:19:06.700Z,2.70
2018-12-27T00:21:38.726Z,3.40
2018-12-27T00:24:09.948Z,2.67
2018-12-27T00:26:40.923Z,3.35
2018-12-27T00:29:11.894Z,2.42
2018-12-27T00:31:44.253Z,2.67
2018-12-27T00:34:15.557Z,1.67
2018-12-27T00:36:46.850Z,2.10
2018-12-27T00:39:18.187Z,2.30
2018-12-27T00:41:49.462Z,2.80
2018-12-27T00:44:20.768Z,2.70
2018-12-27T00:46:53.293Z,3.83
2018-12-27T00:49:24.634Z,1.90
2018-12-27T00:51:55.926Z,2.40
2018-12-27T00:54:27.269Z,1.87
2018-12-27T00:56:59.740Z,2.40
2018-12-27T00:59:31.044Z,2.63
2018-12-27T01:02:02.327Z,2.40
2018-12-27T01:04:33.694Z,2.43
2018-12-27T01:07:05.250Z,3.10
2018-12-27T01:09:36.555Z,1.80
2018-12-27T01:12:08.083Z,2.63
2018-12-27T01:14:39.452Z,2.93
2018-12-27T01:17:10.746Z,3.37
2018-12-27T01:19:42.369Z,3.40
2018-12-27T01:22:13.951Z,1.83
2018-12-27T01:24:46.381Z,2.58
2018-12-27T01:27:17.653Z,2.30
2018-12-27T01:29:49.257Z,1.85
2018-12-27T01:32:21.251Z,2.27
2018-12-27T01:34:52.566Z,1.97
2018-12-27T01:37:24.140Z,3.37
2018-12-27T01:39:55.443Z,1.80
2018-12-27T01:42:26.878Z,1.70
2018-12-27T01:44:58.744Z,2.15
2018-12-27T01:47:30.028Z,2.05
2018-12-27T01:50:01.438Z,2.40
2018-12-27T01:52:32.771Z,2.33
2018-12-27T01:55:04.435Z,1.82
2018-12-27T01:57:36.040Z,1.40
2018-12-27T02:00:07.361Z,2.10
2018-12-27T02:02:39.214Z,2.05
2018-12-27T02:05:10.522Z,1.82
2018-12-27T02:07:43.021Z,1.77
2018-12-27T02:10:14.318Z,2.13
2018-12-27T02:12:46.492Z,1.75
2018-12-27T02:15:17.794Z,2.25
2018-12-27T02:17:49.242Z,1.67
2018-12-27T02:20:21.549Z,2.53
2018-12-27T02:22:52.814Z,2.00
2018-12-27T02:25:24.824Z,2.40
2018-12-27T02:27:56.103Z,2.55
2018-12-27T02:30:27.714Z,2.00
2018-12-27T02:32:59.086Z,2.90
2018-12-27T02:35:30.366Z,2.37
2018-12-27T02:38:01.741Z,1.80
2018-12-27T02:40:33.006Z,2.03
2018-12-27T02:43:04.282Z,1.93
2018-12-27T02:45:35.578Z,2.10
2018-12-27T02:48:06.864Z,1.90
2018-12-27T02:50:38.506Z,2.10
2018-12-27T02:53:10.084Z,2.23
2018-12-27T02:55:41.691Z,2.30
2018-12-27T02:58:12.970Z,2.57
2018-12-27T03:00:44.368Z,2.10
2018-12-27T03:03:15.651Z,1.70
2018-12-27T03:05:47.245Z,1.83
2018-12-27T03:08:18.529Z,2.23
2018-12-27T03:10:49.839Z,3.27
2018-12-27T03:13:21.200Z,2.63
2018-12-27T03:15:52.812Z,2.50
2018-12-27T03:18:24.098Z,2.40
2018-12-27T03:20:55.868Z,2.00
2018-12-27T03:23:27.179Z,2.90
2018-12-27T03:25:58.465Z,2.23
2018-12-27T03:28:30.443Z,1.90
2018-12-27T03:31:01.989Z,2.40
2018-12-27T03:33:33.265Z,1.90
2018-12-27T03:36:04.554Z,3.30
2018-12-27T03:38:35.870Z,3.17
2018-12-27T03:41:07.171Z,2.13
2018-12-27T03:43:39.048Z,2.10
2018-12-27T03:46:10.352Z,2.07
2018-12-27T03:48:43.428Z,1.82
2018-12-27T03:51:14.898Z,1.65
2018-12-27T03:53:46.788Z,2.17
2018-12-27T03:56:18.319Z,2.00
2018-12-27T03:58:49.961Z,1.73
2018-12-27T04:01:21.899Z,1.70
2018-12-27T04:04:01.078Z,1.60
2018-12-27T04:06:26.236Z,1.80
2018-12-27T04:08:57.781Z,1.30
2018-12-27T04:11:29.091Z,2.33
2018-12-27T04:14:00.365Z,1.85
2018-12-27T04:16:31.581Z,1.63
2018-12-27T04:19:02.590Z,2.27
2018-12-27T04:21:33.635Z,2.05
2018-12-27T04:24:05.268Z,2.77
2018-12-27T04:26:36.230Z,2.23
2018-12-27T04:29:07.186Z,1.45
2018-12-27T04:31:38.791Z,2.40
2018-12-27T04:34:10.687Z,2.03
2018-12-27T04:36:42.703Z,2.57
2018-12-27T04:39:13.651Z,2.05
2018-12-27T04:41:45.417Z,1.70
2018-12-27T04:44:16.895Z,2.10
2018-12-27T04:46:47.860Z,1.57
2018-12-27T04:49:19.258Z,2.27
2018-12-27T04:51:50.609Z,2.13
2018-12-27T04:54:22.362Z,1.73
2018-12-27T04:56:53.606Z,2.40
2018-12-27T04:59:25.889Z,2.47
2018-12-27T05:01:57.220Z,2.52
2018-12-27T05:04:28.184Z,1.40
2018-12-27T05:06:59.408Z,1.50
2018-12-27T05:09:30.385Z,2.45
2018-12-27T05:12:01.700Z,2.17
2018-12-27T05:14:32.726Z,1.37
2018-12-27T05:17:03.702Z,1.67
2018-12-27T05:19:34.828Z,1.67
2018-12-27T05:22:06.126Z,1.65
2018-12-27T05:24:37.077Z,1.53
2018-12-27T05:27:08.311Z,2.50
2018-12-27T05:29:39.569Z,1.43
2018-12-27T05:32:10.563Z,2.37
2018-12-27T05:34:41.585Z,2.20
2018-12-27T05:37:12.545Z,1.27
2018-12-27T05:39:43.490Z,1.50
2018-12-27T05:42:14.449Z,1.27
2018-12-27T05:44:46.492Z,1.62
2018-12-27T05:47:17.444Z,2.20
2018-12-27T05:49:48.774Z,2.07
2018-12-27T05:52:19.750Z,2.07
2018-12-27T05:54:50.713Z,1.53
2018-12-27T05:57:22.074Z,1.70
2018-12-27T05:59:53.050Z,1.82
2018-12-27T06:02:24.270Z,2.87
2018-12-27T06:04:56.039Z,1.46
2018-12-27T06:07:26.995Z,1.47
2018-12-27T06:09:58.326Z,1.17
2018-12-27T06:12:29.387Z,2.27
2018-12-27T06:15:00.341Z,1.92
2018-12-27T06:17:32.357Z,1.57
2018-12-27T06:20:03.412Z,1.92
2018-12-27T06:22:34.366Z,1.60
2018-12-27T06:25:05.684Z,1.23
2018-12-27T06:27:36.665Z,2.03
2018-12-27T06:30:08.084Z,2.17
2018-12-27T06:32:39.281Z,2.27
2018-12-27T06:35:10.375Z,2.20
2018-12-27T06:37:41.738Z,2.13
2018-12-27T06:40:12.764Z,1.32
2018-12-27T06:42:44.854Z,0.95
2018-12-27T06:45:15.910Z,1.00
2018-12-27T06:47:47.206Z,1.90
2018-12-27T06:50:18.160Z,1.22
2018-12-27T06:52:49.698Z,1.80
2018-12-27T06:55:20.703Z,1.50
2018-12-27T06:57:51.664Z,1.55
2018-12-27T07:00:23.000Z,1.63
2018-12-27T07:02:54.583Z,1.07
2018-12-27T07:05:25.529Z,1.73
2018-12-27T07:07:56.490Z,1.67
2018-12-27T07:10:27.433Z,2.17
2018-12-27T07:12:58.761Z,2.10
2018-12-27T07:15:29.807Z,1.53
2018-12-27T07:18:00.758Z,1.03
2018-12-27T07:20:31.968Z,1.93
2018-12-27T07:23:02.927Z,1.73
2018-12-27T07:25:34.119Z,1.73
2018-12-27T07:28:05.364Z,2.20
2018-12-27T07:30:36.324Z,1.50
2018-12-27T07:33:07.283Z,1.93
2018-12-27T07:35:38.549Z,1.90
2018-12-27T07:38:09.551Z,1.13
2018-12-27T07:40:41.208Z,2.50
2018-12-27T07:43:12.418Z,3.55
2018-12-27T07:45:43.378Z,2.80
2018-12-27T07:48:14.609Z,1.62
2018-12-27T07:50:46.798Z,1.40
2018-12-27T07:53:17.760Z,2.40
2018-12-27T07:55:48.723Z,2.98
2018-12-27T07:58:19.921Z,1.60
2018-12-27T08:00:50.872Z,1.52
2018-12-27T08:03:22.102Z,1.87
2018-12-27T08:05:53.066Z,1.23
2018-12-27T08:08:24.039Z,2.98
2018-12-27T08:10:55.070Z,1.73
2018-12-27T08:13:26.194Z,1.50
2018-12-27T08:15:57.510Z,1.83
2018-12-27T08:18:29.056Z,1.40
2018-12-27T08:21:00.135Z,1.52
2018-12-27T08:23:32.292Z,1.42
2018-12-27T08:26:03.359Z,1.10
2018-12-27T08:28:34.318Z,1.93
2018-12-27T08:31:05.634Z,1.77
2018-12-27T08:33:36.688Z,2.10
2018-12-27T08:36:08.018Z,1.43
2018-12-27T08:38:38.982Z,1.63
2018-12-27T08:41:09.933Z,2.47
2018-12-27T08:43:40.901Z,1.10
2018-12-27T08:46:12.701Z,1.63
2018-12-27T08:48:43.947Z,3.03
2018-12-27T08:51:15.726Z,1.42
2018-12-27T08:53:46.999Z,1.87
2018-12-27T08:56:17.945Z,2.30
2018-12-27T08:58:49.484Z,2.87
2018-12-27T09:01:20.437Z,2.33
2018-12-27T09:03:51.464Z,2.30
2018-12-27T09:06:22.489Z,2.00
2018-12-27T09:08:53.467Z,1.40
2018-12-27T09:11:24.418Z,1.97
2018-12-27T09:13:55.377Z,1.83
2018-12-27T09:16:26.451Z,2.60
2018-12-27T09:18:57.689Z,2.20
2018-12-27T09:21:28.627Z,2.63
2018-12-27T09:23:59.574Z,2.17
2018-12-27T09:26:31.103Z,1.73
2018-12-27T09:29:02.067Z,2.30
2018-12-27T09:31:33.887Z,1.13
2018-12-27T09:34:04.886Z,1.92
2018-12-27T09:36:35.815Z,2.37
2018-12-27T09:39:08.504Z,2.30
2018-12-27T09:41:39.455Z,2.07
2018-12-27T09:44:11.096Z,2.42
2018-12-27T09:46:42.296Z,1.60
2018-12-27T09:49:13.368Z,2.00
2018-12-27T09:51:44.710Z,1.73
2018-12-27T09:54:15.683Z,1.20
2018-12-27T09:56:47.111Z,1.87
2018-12-27T09:59:18.072Z,1.75
2018-12-27T10:01:53.093Z,1.80
2018-12-27T10:04:24.422Z,1.63
2018-12-27T10:06:55.459Z,2.07
2018-12-27T10:09:27.100Z,2.13
2018-12-27T10:11:58.366Z,2.00
2018-12-27T10:14:29.389Z,1.50
2018-12-27T10:17:00.732Z,2.07
2018-12-27T10:19:31.724Z,1.70
2018-12-27T10:22:03.766Z,1.96
2018-12-27T10:24:34.792Z,2.17
2018-12-27T10:27:06.335Z,1.60
2018-12-27T10:29:37.394Z,2.20
2018-12-27T10:32:08.594Z,1.98
2018-12-27T10:34:39.875Z,2.13
2018-12-27T10:37:10.905Z,1.83
2018-12-27T10:39:42.105Z,2.13
2018-12-27T10:42:13.100Z,2.33
2018-12-27T10:44:44.170Z,2.43
2018-12-27T10:47:15.131Z,2.50
2018-12-27T10:49:47.343Z,1.90
2018-12-27T10:52:18.411Z,1.70
2018-12-27T10:54:49.934Z,1.72
2018-12-27T10:57:20.956Z,2.40
2018-12-27T10:59:52.320Z,1.62
2018-12-27T11:02:23.604Z,1.93
2018-12-27T11:04:55.336Z,1.70
2018-12-27T11:07:26.372Z,1.70
2018-12-27T11:09:57.341Z,1.90
2018-12-27T11:12:28.554Z,1.57
2018-12-27T11:14:59.505Z,1.60
2018-12-27T11:17:30.556Z,1.43
2018-12-27T11:20:01.985Z,1.60
2018-12-27T11:22:34.295Z,1.30
2018-12-27T11:25:05.427Z,1.10
2018-12-27T11:27:36.813Z,1.97
2018-12-27T11:30:08.681Z,1.90
2018-12-27T11:32:39.743Z,1.77
2018-12-27T11:35:11.098Z,1.47
2018-12-27T11:37:42.169Z,1.80
2018-12-27T11:40:13.115Z,1.77
2018-12-27T11:42:44.093Z,1.77
2018-12-27T11:45:15.578Z,1.77
2018-12-27T11:47:47.573Z,2.95
2018-12-27T11:50:19.507Z,2.50
2018-12-27T11:52:50.983Z,2.17
2018-12-27T11:55:22.015Z,2.27
2018-12-27T11:57:52.976Z,2.30
2018-12-27T12:00:24.007Z,1.73
2018-12-27T12:02:55.372Z,1.52
2018-12-27T12:05:26.489Z,1.73
2018-12-27T12:07:57.720Z,1.42
2018-12-27T12:10:28.733Z,2.10
2018-12-27T12:13:00.000Z,1.80
2018-12-27T12:15:30.963Z,1.40
2018-12-27T12:18:01.932Z,1.47
2018-12-27T12:20:35.715Z,1.60
2018-12-27T12:23:06.852Z,1.60
2018-12-27T12:25:37.909Z,2.45
2018-12-27T12:28:09.321Z,3.30
2018-12-27T12:30:40.395Z,2.57
2018-12-27T12:33:11.347Z,2.87
2018-12-27T12:35:42.329Z,2.57
2018-12-27T12:38:13.628Z,2.37
2018-12-27T12:40:44.999Z,3.13
2018-12-27T12:43:15.988Z,3.27
2018-12-27T12:45:48.689Z,3.10
2018-12-27T12:48:20.097Z,4.15
2018-12-27T12:50:51.122Z,3.30
2018-12-27T12:53:22.406Z,3.50
2018-12-27T12:55:53.493Z,2.70
2018-12-27T12:58:24.780Z,3.30
2018-12-27T13:00:55.839Z,3.13
2018-12-27T13:03:26.877Z,2.10
2018-12-27T13:05:57.841Z,3.08
2018-12-27T13:08:29.017Z,3.63
2018-12-27T13:11:00.008Z,2.85
2018-12-27T13:13:30.986Z,3.57
2018-12-27T13:16:01.945Z,2.37
2018-12-27T13:18:33.432Z,3.43
2018-12-27T13:21:05.073Z,3.22
2018-12-27T13:23:38.171Z,2.90
2018-12-27T13:26:09.408Z,4.07
2018-12-27T13:28:41.072Z,3.63
2018-12-27T13:31:12.030Z,2.90
2018-12-27T13:33:43.012Z,2.93
2018-12-27T13:36:14.003Z,3.73
2018-12-27T13:38:46.738Z,3.60
2018-12-27T13:41:17.936Z,3.58
2018-12-27T13:43:49.804Z,3.37
2018-12-27T13:46:21.414Z,3.35
2018-12-27T13:48:52.699Z,2.80
2018-12-27T13:51:23.690Z,3.55
2018-12-27T13:53:54.998Z,3.10
2018-12-27T13:56:26.209Z,3.03
2018-12-27T13:58:57.200Z,3.35
2018-12-27T14:01:28.192Z,2.73
2018-12-27T14:03:59.276Z,2.83
2018-12-27T14:06:32.861Z,4.33
2018-12-27T14:09:04.631Z,3.13
2018-12-27T14:11:36.538Z,3.37
2018-12-27T14:14:07.569Z,3.03
2018-12-27T14:16:38.574Z,3.37
2018-12-27T14:19:11.145Z,3.40
2018-12-27T14:21:42.453Z,3.50
2018-12-27T14:24:13.438Z,4.13
2018-12-27T14:26:44.468Z,3.87
2018-12-27T14:29:15.816Z,3.58
2018-12-27T14:31:47.792Z,3.42
2018-12-27T14:34:18.832Z,3.40
2018-12-27T14:36:49.788Z,3.12
2018-12-27T14:39:20.773Z,3.67
2018-12-27T14:41:51.822Z,4.60
2018-12-27T14:44:23.833Z,3.93
2018-12-27T14:46:54.860Z,4.60
2018-12-27T14:49:25.868Z,2.77
2018-12-27T14:51:57.185Z,4.62
2018-12-27T14:54:28.406Z,3.60
2018-12-27T14:56:59.419Z,3.63
2018-12-27T14:59:30.409Z,3.60
2018-12-27T15:02:01.358Z,3.62
2018-12-27T15:04:32.927Z,3.77
2018-12-27T15:07:04.237Z,3.47
2018-12-27T15:09:35.551Z,2.73
2018-12-27T15:12:07.133Z,3.23
2018-12-27T15:14:38.675Z,4.97
2018-12-27T15:17:11.225Z,3.80
2018-12-27T15:19:42.544Z,3.57
2018-12-27T15:22:13.739Z,2.80
2018-12-27T15:24:45.205Z,3.80
2018-12-27T15:27:16.150Z,3.17
2018-12-27T15:29:48.033Z,3.90
2018-12-27T15:32:19.219Z,3.37
2018-12-27T15:34:50.831Z,4.17
2018-12-27T15:37:21.793Z,3.17
2018-12-27T15:39:53.052Z,2.62
2018-12-27T15:42:24.276Z,3.87
2018-12-27T15:44:55.288Z,2.75
2018-12-27T15:47:26.978Z,3.53
2018-12-27T15:49:58.324Z,3.30
2018-12-27T15:52:29.279Z,3.83
2018-12-27T15:55:00.269Z,3.40
2018-12-27T15:57:31.216Z,3.57
2018-12-27T16:00:02.492Z,5.30
2018-12-27T16:02:34.514Z,4.67
2018-12-27T16:05:05.631Z,3.90
2018-12-27T16:07:36.587Z,3.60
2018-12-27T16:10:08.050Z,4.40
2018-12-27T16:12:39.008Z,3.87
2018-12-27T16:15:10.401Z,5.07
2018-12-27T16:17:42.270Z,4.72
2018-12-27T16:20:13.264Z,5.97
2018-12-27T16:22:44.220Z,4.53
2018-12-27T16:25:15.828Z,5.40
2018-12-27T16:27:47.032Z,5.20
2018-12-27T16:30:18.066Z,5.80
2018-12-27T16:32:49.369Z,4.33
2018-12-27T16:35:20.671Z,4.17
2018-12-27T16:37:51.746Z,3.77
2018-12-27T16:40:23.179Z,6.35
2018-12-27T16:42:54.508Z,5.17
2018-12-27T16:45:26.084Z,4.40
2018-12-27T16:47:57.417Z,4.65
2018-12-27T16:50:28.812Z,3.53
2018-12-27T16:52:59.767Z,5.23
2018-12-27T16:55:30.768Z,4.27
2018-12-27T16:58:02.077Z,5.37
2018-12-27T17:00:33.065Z,4.70
2018-12-27T17:03:04.379Z,5.47
2018-12-27T17:05:35.355Z,4.67
2018-12-27T17:08:06.304Z,4.67
2018-12-27T17:10:37.766Z,5.07
2018-12-27T17:13:09.139Z,4.57
2018-12-27T17:15:40.395Z,5.80
2018-12-27T17:18:11.346Z,4.33
2018-12-27T17:20:43.597Z,4.62
2018-12-27T17:23:15.092Z,4.30
2018-12-27T17:25:46.538Z,3.73
2018-12-27T17:28:17.818Z,3.30
2018-12-27T17:30:48.805Z,4.63
2018-12-27T17:33:20.039Z,3.73
2018-12-27T17:35:50.029Z,3.70
2018-12-27T17:38:21.066Z,3.27
2018-12-27T17:40:52.075Z,3.13
2018-12-27T17:43:23.117Z,3.50
2018-12-27T17:45:54.883Z,4.20
2018-12-27T17:48:26.856Z,4.33
2018-12-27T17:50:57.879Z,5.47
2018-12-27T17:53:28.984Z,4.47
2018-12-27T17:55:59.985Z,4.50
2018-12-27T17:58:31.575Z,4.40
2018-12-27T18:01:02.652Z,3.60
2018-12-27T18:03:34.475Z,3.05
2018-12-27T18:06:05.823Z,3.08
2018-12-27T18:08:36.855Z,2.02
2018-12-27T18:11:07.846Z,5.55
2018-12-27T18:13:38.873Z,6.43
2018-12-27T18:16:09.894Z,4.43
2018-12-27T18:18:41.338Z,3.70
2018-12-27T18:21:12.316Z,3.47
2018-12-27T18:23:43.586Z,3.37
2018-12-27T18:26:14.682Z,5.10
2018-12-27T18:28:45.631Z,4.90
2018-12-27T18:31:16.860Z,3.73
2018-12-27T18:33:47.808Z,6.00
2018-12-27T18:36:18.788Z,7.00
2018-12-27T18:38:50.798Z,8.67
2018-12-27T18:41:21.867Z,5.17
2018-12-27T18:43:53.059Z,6.40
2018-12-27T18:46:24.344Z,4.60
2018-12-27T18:48:55.573Z,4.97
2018-12-27T18:51:26.552Z,3.37
2018-12-27T18:53:57.764Z,4.85
2018-12-27T18:56:28.983Z,5.03
2018-12-27T18:59:00.031Z,5.83
2018-12-27T19:01:31.038Z,3.05
2018-12-27T19:04:02.041Z,4.83
2018-12-27T19:06:33.589Z,5.13
2018-12-27T19:09:07.083Z,3.50
2018-12-27T19:12:32.443Z,4.37
2018-12-27T19:15:12.478Z,2.77
2018-12-27T19:17:59.459Z,4.50
2018-12-27T19:20:31.423Z,4.13
2018-12-27T19:23:22.641Z,4.70
2018-12-27T19:25:53.905Z,4.30
2018-12-27T19:28:25.743Z,4.95
2018-12-27T19:30:56.732Z,4.87
2018-12-27T19:33:27.921Z,5.40
2018-12-27T19:35:59.482Z,5.20
2018-12-27T19:38:30.914Z,3.97
2018-12-27T19:41:01.960Z,5.17
2018-12-27T19:43:33.182Z,4.33
2018-12-27T19:46:04.880Z,5.67
2018-12-27T19:48:35.879Z,3.50
2018-12-27T19:51:06.885Z,5.30
2018-12-27T19:53:37.829Z,4.53
2018-12-27T19:56:08.902Z,5.47
2018-12-27T19:58:39.863Z,5.35
2018-12-27T20:01:11.156Z,5.77
2018-12-27T20:03:43.099Z,4.77
2018-12-27T20:06:14.437Z,4.93
2018-12-27T20:08:45.390Z,4.07
2018-12-27T20:11:16.763Z,6.17
2018-12-27T20:13:49.017Z,7.00
2018-12-27T20:16:21.020Z,6.74
2018-12-27T20:18:51.971Z,4.42
2018-12-27T20:21:23.024Z,5.37
2018-12-27T20:23:54.389Z,5.40
2018-12-27T20:26:25.471Z,3.83
2018-12-27T20:28:56.472Z,4.00
2018-12-27T20:31:27.542Z,4.70
2018-12-27T20:33:59.993Z,5.50
2018-12-27T20:36:31.123Z,4.12
2018-12-27T20:39:02.073Z,4.83
2018-12-27T20:41:33.237Z,3.53
2018-12-27T20:44:04.336Z,4.53
2018-12-27T20:46:35.430Z,4.53
2018-12-27T20:49:06.423Z,6.23
2018-12-27T20:51:37.417Z,6.77
2018-12-27T20:54:08.376Z,6.00
2018-12-27T20:56:39.488Z,5.23
2018-12-27T20:59:10.516Z,4.78
2018-12-27T21:01:41.528Z,4.45
2018-12-27T21:04:12.482Z,4.97
2018-12-27T21:06:43.552Z,4.00
2018-12-27T21:09:14.861Z,5.50
2018-12-27T21:11:45.922Z,4.43
2018-12-27T21:14:16.889Z,3.90
2018-12-27T21:16:49.366Z,3.70
2018-12-27T21:19:20.386Z,4.30
2018-12-27T21:21:51.682Z,4.87
2018-12-27T21:24:23.149Z,3.37
2018-12-27T21:26:55.696Z,4.90
2018-12-27T21:29:27.739Z,5.10
2018-12-27T21:31:58.824Z,3.98
2018-12-27T21:34:29.812Z,3.30
2018-12-27T21:37:01.168Z,4.28
2018-12-27T21:39:32.128Z,4.50
2018-12-27T21:42:03.181Z,4.22
2018-12-27T21:44:34.176Z,4.20
2018-12-27T21:47:05.239Z,4.53
2018-12-27T21:49:36.670Z,4.27
2018-12-27T21:52:07.681Z,3.60
2018-12-27T21:54:39.336Z,4.27
2018-12-27T21:57:10.351Z,5.08
2018-12-27T21:59:41.306Z,4.43
2018-12-27T22:02:12.633Z,4.28
2018-12-27T22:04:43.676Z,4.37
2018-12-27T22:07:14.706Z,4.58
2018-12-27T22:09:46.011Z,3.80
2018-12-27T22:12:16.993Z,3.43
2018-12-27T22:14:49.136Z,4.40
2018-12-27T22:17:20.696Z,3.50
2018-12-27T22:19:51.734Z,4.40
2018-12-27T22:22:23.263Z,3.47
2018-12-27T22:24:54.227Z,2.93
2018-12-27T22:27:25.218Z,4.30
2018-12-27T22:29:56.488Z,4.03
2018-12-27T22:32:28.232Z,3.20
2018-12-27T22:34:59.903Z,4.38
2018-12-27T22:37:30.986Z,5.23
2018-12-27T22:40:02.702Z,4.17
2018-12-27T22:42:33.679Z,4.42
2018-12-27T22:45:04.782Z,4.47
2018-12-27T22:47:35.804Z,4.77
2018-12-27T22:50:07.784Z,4.23
2018-12-27T22:52:39.504Z,4.17
2018-12-27T22:55:10.505Z,3.22
2018-12-27T22:57:41.550Z,3.95
2018-12-27T23:00:21.850Z,4.75
2018-12-27T23:02:53.667Z,3.83
2018-12-27T23:05:25.609Z,3.83
2018-12-27T23:07:56.892Z,3.27
2018-12-27T23:10:27.851Z,3.63
2018-12-27T23:12:59.819Z,3.88
2018-12-27T23:15:30.922Z,3.75
2018-12-27T23:18:01.908Z,4.55
2018-12-27T23:20:34.211Z,4.15
2018-12-27T23:23:05.467Z,3.40
2018-12-27T23:25:36.467Z,3.53
2018-12-27T23:28:07.466Z,3.70
2018-12-27T23:30:38.605Z,4.00
2018-12-27T23:33:09.592Z,3.60
2018-12-27T23:35:40.547Z,3.97
2018-12-27T23:38:11.736Z,4.03
2018-12-27T23:40:42.765Z,3.60
2018-12-27T23:43:14.094Z,3.33
2018-12-27T23:45:45.333Z,2.77
2018-12-27T23:48:16.415Z,2.35
2018-12-27T23:50:47.361Z,3.00
2018-12-27T23:53:18.394Z,4.07
2018-12-27T23:55:49.892Z,3.33
2018-12-27T23:58:21.145Z,4.13
